Chebanse, IL (60922)

1:10 PM CDT on September 04, 2015 (GMT -0500)
Main Street | | Change Station
CLOSE
Current Station
Personal Weather Station
Location: Clifton, IL
Elevation: 669 ft
Nearby Weather Stations

Elev 669 ft 40.93 °N, 87.93 °W | Updated 7 minutes ago

Mostly Cloudy
Mostly Cloudy
93.0 °F
Feels Like 101 °F
N
9.4
Wind Variable Wind from West

Today
High -- | Low -- °F
--% Chance of Precip.
Yesterday
High -- | Low -- °F
Precip. -- in
6:21 AM 7:19 PM
Waning Gibbous, 57% visible
Pressure 30.02 in
Visibility 10.0 miles
Clouds Clear
Heat Index 101 °F
Dew Point 72 °F
Humidity 51%
Rainfall 0.00 in
Snow Depth Not available.
UV 9 out of 12
Pollen 8.90 out of 12
Air Quality Not available.
Flu Activity Not available.
METAR KIKK 041755Z AUTO 00000KT 10SM CLR 32/23 A3002 RMK AO2 T03150228 10316 20192
Pressure 30.02 in
Visibility 10.0 miles
Clouds Clear
Heat Index 101 °F
Dew Point 72 °F
Humidity 51%
Rainfall 0.00 in
Snow Depth Not available.
UV 9 out of 12
Pollen 8.90 out of 12
Air Quality Not available.
Flu Activity Not available.
METAR KIKK 041755Z AUTO 00000KT 10SM CLR 32/23 A3002 RMK AO2 T03150228 10316 20192

10-Day Weather Forecast

×

Almanac

Astronomy

Sep. 04, 2015 Rise Set
Actual Time
Civil Twilight
Nautical Twilight
Astronomical Twilight
Moon
Length of Visible Light
Length of Day
Tomorrow will be .
, % of the Moon is Illuminated

Today's Extremes

State Highs State Lows

Community

WunderPhotos

Upload Photos

1,852,248 photos uploaded!

WunderBlogs® & News

Nearby

Air Quality

  Air Quality AQ Index Pollutant
Not available.

Snow Depth

Station Depth Elevation

Earthquake Activity

City Distance Mag. Time & Date
Minimum magnitude displayed is 2.5.

Coastal Water Temperatures

Place Temperature

Stations

Nearby Weather Stations

Station Location Temp. Windchill Dew Point Humidity Wind Precip. Elev Updated Type